createdAt,value
2023-04-22T00:01:35.659Z,100315.88
2023-04-22T00:04:04.060Z,100386.84
2023-04-22T00:06:32.488Z,100365.91
2023-04-22T00:09:00.466Z,100386.00
2023-04-22T00:11:29.861Z,100370.78
2023-04-22T00:13:57.920Z,100382.13
2023-04-22T00:16:26.461Z,100365.53
2023-04-22T00:18:54.386Z,100372.66
2023-04-22T00:21:22.248Z,100360.75
2023-04-22T00:23:50.132Z,100357.59
2023-04-22T00:26:18.370Z,100357.84
2023-04-22T00:28:47.927Z,100350.09
2023-04-22T00:31:15.982Z,100362.50
2023-04-22T00:33:44.302Z,100282.19
2023-04-22T00:36:12.542Z,100352.16
2023-04-22T00:38:40.518Z,100353.56
2023-04-22T00:41:09.167Z,100349.00
2023-04-22T00:43:37.193Z,100352.47
2023-04-22T00:46:07.318Z,100351.28
2023-04-22T00:48:36.454Z,100337.88
2023-04-22T00:51:05.962Z,100343.75
2023-04-22T00:53:33.898Z,100354.25
2023-04-22T00:56:01.879Z,100352.16
2023-04-22T00:58:30.866Z,100362.81
2023-04-22T01:00:59.442Z,100349.00
2023-04-22T01:03:30.839Z,100324.25
2023-04-22T01:05:59.110Z,100363.56
2023-04-22T01:08:30.828Z,100363.88
2023-04-22T01:10:58.999Z,100360.56
2023-04-22T01:13:27.052Z,100356.13
2023-04-22T01:15:55.768Z,100355.25
2023-04-22T01:18:23.905Z,100353.44
2023-04-22T01:20:53.390Z,100346.47
2023-04-22T01:23:25.736Z,100357.69
2023-04-22T01:25:53.777Z,100353.34
2023-04-22T01:28:21.806Z,100352.03
2023-04-22T01:30:50.195Z,100279.53
2023-04-22T01:33:18.331Z,100339.47
2023-04-22T01:35:46.298Z,100353.47
2023-04-22T01:38:14.666Z,100351.78
2023-04-22T01:40:43.900Z,100353.03
2023-04-22T01:43:12.106Z,100353.91
2023-04-22T01:45:40.853Z,100348.81
2023-04-22T01:48:08.939Z,100342.38
2023-04-22T01:50:38.601Z,100352.84
2023-04-22T01:53:08.350Z,100352.84
2023-04-22T01:55:37.272Z,100351.69
2023-04-22T01:58:06.731Z,100350.13
2023-04-22T02:00:34.769Z,100275.72
2023-04-22T02:03:02.921Z,100350.69
2023-04-22T02:05:31.160Z,100317.50
2023-04-22T02:07:59.121Z,100351.22
2023-04-22T02:10:27.150Z,100328.53
2023-04-22T02:12:55.169Z,100339.22
2023-04-22T02:15:24.780Z,100347.44
2023-04-22T02:17:55.426Z,100339.44
2023-04-22T02:20:23.802Z,100343.34
2023-04-22T02:22:52.074Z,100335.66
2023-04-22T02:25:21.382Z,100332.47
2023-04-22T02:27:51.307Z,100319.41
2023-04-22T02:30:19.675Z,100341.09
2023-04-22T02:32:49.446Z,100338.66
2023-04-22T02:35:17.571Z,100327.69
2023-04-22T02:37:45.476Z,100325.97
2023-04-22T02:40:13.722Z,100326.84
2023-04-22T02:42:41.620Z,100329.44
2023-04-22T02:45:10.269Z,100337.69
2023-04-22T02:47:39.113Z,100331.84
2023-04-22T02:50:09.558Z,100332.78
2023-04-22T02:52:37.537Z,100322.44
2023-04-22T02:55:06.167Z,100328.66
2023-04-22T02:57:34.093Z,100325.16
2023-04-22T03:00:02.035Z,100323.47
2023-04-22T03:02:30.337Z,100247.63
2023-04-22T03:05:12.875Z,100268.56
2023-04-22T03:07:40.923Z,100313.28
2023-04-22T03:10:10.273Z,100306.53
2023-04-22T03:12:38.151Z,100316.50
2023-04-22T03:15:07.076Z,100289.16
2023-04-22T03:17:36.994Z,100313.44
2023-04-22T03:20:09.959Z,100306.81
2023-04-22T03:22:39.216Z,100294.09
2023-04-22T03:25:09.522Z,100306.38
2023-04-22T03:27:37.661Z,100311.84
2023-04-22T03:30:06.779Z,100299.50
2023-04-22T03:32:34.813Z,100296.34
2023-04-22T03:35:16.188Z,100296.47
2023-04-22T03:37:47.381Z,100286.38
2023-04-22T03:40:19.840Z,100296.78
2023-04-22T03:42:47.904Z,100290.81
2023-04-22T03:45:18.444Z,100304.41
2023-04-22T03:47:51.346Z,100309.72
2023-04-22T03:50:24.496Z,100230.34
2023-04-22T03:52:55.846Z,100306.28
2023-04-22T03:55:24.435Z,100302.88
2023-04-22T03:57:54.062Z,100300.03
2023-04-22T04:00:22.244Z,100307.38
2023-04-22T04:03:01.382Z,100307.63
2023-04-22T04:05:29.583Z,100312.06
2023-04-22T04:07:59.113Z,100312.19
2023-04-22T04:10:27.201Z,100304.88
2023-04-22T04:12:56.697Z,100306.66
2023-04-22T04:15:26.110Z,100315.78
2023-04-22T04:17:56.317Z,100311.19
2023-04-22T04:20:26.250Z,100314.03
2023-04-22T04:22:54.298Z,100315.91
2023-04-22T04:25:24.089Z,100277.78
2023-04-22T04:27:52.802Z,100310.63
2023-04-22T04:30:21.616Z,100297.34
2023-04-22T04:32:54.333Z,100302.66
2023-04-22T04:35:23.887Z,100298.13
2023-04-22T04:37:55.342Z,100299.75
2023-04-22T04:40:25.593Z,100296.16
2023-04-22T04:43:16.362Z,100301.19
2023-04-22T04:45:51.812Z,100286.34
2023-04-22T04:48:27.066Z,100269.63
2023-04-22T04:51:00.924Z,100289.97
2023-04-22T04:53:33.128Z,100287.03
2023-04-22T04:56:02.486Z,100285.00
2023-04-22T04:58:31.294Z,100283.16
2023-04-22T05:01:11.209Z,100285.31
2023-04-22T05:03:39.498Z,100290.09
2023-04-22T05:06:08.285Z,100282.94
2023-04-22T05:08:39.047Z,100281.13
2023-04-22T05:11:11.689Z,100290.47
2023-04-22T05:13:39.637Z,100278.50
2023-04-22T05:16:10.796Z,100295.94
2023-04-22T05:18:40.166Z,100286.19
2023-04-22T05:21:10.248Z,100284.84
2023-04-22T05:23:38.225Z,100285.81
2023-04-22T05:26:07.448Z,100278.25
2023-04-22T05:28:38.774Z,100285.41
2023-04-22T05:31:06.848Z,100293.06
2023-04-22T05:33:34.941Z,100290.66
2023-04-22T05:36:02.903Z,100223.19
2023-04-22T05:38:30.914Z,100287.59
2023-04-22T05:40:58.846Z,100308.28
2023-04-22T05:43:27.068Z,100291.63
2023-04-22T05:46:03.322Z,100283.31
2023-04-22T05:48:32.595Z,100304.34
2023-04-22T05:51:04.557Z,100294.56
2023-04-22T05:53:32.799Z,100282.97
2023-04-22T05:56:02.615Z,100291.19
2023-04-22T05:58:30.742Z,100270.97
2023-04-22T06:01:09.149Z,100235.59
2023-04-22T06:04:00.622Z,100281.38
2023-04-22T06:06:32.098Z,100270.03
2023-04-22T06:09:00.169Z,100262.91
2023-04-22T06:11:28.405Z,100268.91
2023-04-22T06:13:56.371Z,100274.06
2023-04-22T06:16:26.273Z,100255.94
2023-04-22T06:18:54.457Z,100270.72
2023-04-22T06:21:24.240Z,100262.78
2023-04-22T06:23:52.207Z,100264.31
2023-04-22T06:26:20.545Z,100264.34
2023-04-22T06:28:48.867Z,100262.75
2023-04-22T06:31:21.257Z,100267.16
2023-04-22T06:33:51.164Z,100260.31
2023-04-22T06:36:20.814Z,100239.84
2023-04-22T06:38:54.766Z,100270.03
2023-04-22T06:41:44.198Z,100252.94
2023-04-22T06:44:27.883Z,100260.03
2023-04-22T06:47:21.942Z,100259.06
2023-04-22T06:49:56.290Z,100248.53
2023-04-22T06:52:31.464Z,100251.31
2023-04-22T06:55:00.325Z,100250.94
2023-04-22T06:57:28.462Z,100248.63
2023-04-22T06:59:56.448Z,100232.22
2023-04-22T07:02:27.321Z,100233.41
2023-04-22T07:04:56.787Z,100232.63
2023-04-22T07:07:25.648Z,100242.78
2023-04-22T07:09:54.057Z,100233.78
2023-04-22T07:12:22.036Z,100238.53
2023-04-22T07:14:50.652Z,100244.66
2023-04-22T07:17:22.322Z,100242.94
2023-04-22T07:19:50.769Z,100249.50
2023-04-22T07:22:20.892Z,100239.59
2023-04-22T07:24:48.953Z,100239.59
2023-04-22T07:27:17.326Z,100227.19
2023-04-22T07:29:45.456Z,100235.84
2023-04-22T07:32:13.701Z,100228.44
2023-04-22T07:34:41.991Z,100160.22
2023-04-22T07:37:10.176Z,100230.44
2023-04-22T07:39:40.011Z,100227.59
2023-04-22T07:42:08.506Z,100219.47
2023-04-22T07:44:39.331Z,100228.09
2023-04-22T07:47:08.710Z,100222.63
2023-04-22T07:49:36.796Z,100229.56
2023-04-22T07:52:04.984Z,100223.59
2023-04-22T07:54:33.104Z,100217.09
2023-04-22T07:57:03.011Z,100220.06
2023-04-22T07:59:31.003Z,100222.72
2023-04-22T08:01:59.078Z,100220.22
2023-04-22T08:04:27.236Z,100220.19
2023-04-22T08:06:56.147Z,100218.38
2023-04-22T08:09:24.167Z,100203.06
2023-04-22T08:11:53.410Z,100210.91
2023-04-22T08:14:22.683Z,100217.66
2023-04-22T08:16:52.492Z,100216.59
2023-04-22T08:19:21.186Z,100212.22
2023-04-22T08:21:49.459Z,100211.03
2023-04-22T08:24:17.359Z,100207.13
2023-04-22T08:26:45.365Z,100220.97
2023-04-22T08:29:13.612Z,100213.84
2023-04-22T08:31:43.080Z,100220.06
2023-04-22T08:34:11.378Z,100207.00
2023-04-22T08:36:39.334Z,100211.34
2023-04-22T08:39:07.576Z,100207.41
2023-04-22T08:41:36.320Z,100208.28
2023-04-22T08:44:04.581Z,100210.28
2023-04-22T08:46:33.232Z,100209.09
2023-04-22T08:49:04.056Z,100207.16
2023-04-22T08:51:33.496Z,100179.75
2023-04-22T08:54:01.728Z,100206.50
2023-04-22T08:56:30.949Z,100196.41
2023-04-22T08:58:59.277Z,100197.53
2023-04-22T09:01:29.360Z,100175.38
2023-04-22T09:04:00.757Z,100181.25
2023-04-22T09:06:33.298Z,100170.56
2023-04-22T09:09:01.721Z,100187.72
2023-04-22T09:11:29.844Z,100186.09
2023-04-22T09:13:58.089Z,100186.63
2023-04-22T09:16:26.096Z,100178.09
2023-04-22T09:18:54.064Z,100173.09
2023-04-22T09:21:26.158Z,100171.97
2023-04-22T09:23:56.702Z,100151.09
2023-04-22T09:26:26.099Z,100177.16
2023-04-22T09:28:55.994Z,100149.91
2023-04-22T09:31:24.431Z,100160.63
2023-04-22T09:33:54.679Z,100157.16
2023-04-22T09:36:24.048Z,100156.72
2023-04-22T09:38:57.621Z,100146.53
2023-04-22T09:41:29.545Z,100156.19
2023-04-22T09:43:58.701Z,100151.81
2023-04-22T09:46:28.743Z,100155.00
2023-04-22T09:48:58.653Z,100142.25
2023-04-22T09:51:27.945Z,100091.16
2023-04-22T09:54:01.994Z,100143.19
2023-04-22T09:56:44.492Z,100143.38
2023-04-22T09:59:12.595Z,100129.41
2023-04-22T10:01:41.762Z,100137.34
2023-04-22T10:04:11.224Z,100135.63
2023-04-22T10:06:39.328Z,100131.88
2023-04-22T10:09:09.722Z,100132.19
2023-04-22T10:11:38.225Z,100105.09
2023-04-22T10:14:06.204Z,100129.06
2023-04-22T10:16:36.327Z,100119.47
2023-04-22T10:19:07.258Z,100128.91
2023-04-22T10:21:36.310Z,100093.03
2023-04-22T10:24:05.302Z,100111.41
2023-04-22T10:26:42.627Z,100105.16
2023-04-22T10:29:16.781Z,100101.03
2023-04-22T10:31:45.787Z,100103.19
2023-04-22T10:34:14.945Z,100092.84
2023-04-22T10:37:07.460Z,100099.38
2023-04-22T10:39:35.383Z,100095.56
2023-04-22T10:42:11.234Z,100100.16
2023-04-22T10:44:51.520Z,100095.19
2023-04-22T10:47:27.373Z,100095.09
2023-04-22T10:50:14.202Z,100090.84
2023-04-22T10:52:43.976Z,100077.97
2023-04-22T10:55:11.938Z,100091.34
2023-04-22T10:57:43.130Z,100087.38
2023-04-22T11:03:16.445Z,100087.91
2023-04-22T11:05:45.334Z,100073.03
2023-04-22T11:08:16.605Z,100075.38
2023-04-22T11:10:48.757Z,100072.34
2023-04-22T11:13:22.949Z,100067.56
2023-04-22T11:15:54.083Z,100044.63
2023-04-22T11:18:24.331Z,100051.78
2023-04-22T11:20:53.690Z,100052.91
2023-04-22T11:23:25.559Z,100048.13
2023-04-22T11:25:57.944Z,100053.19
2023-04-22T11:28:27.988Z,100047.81
2023-04-22T11:31:03.665Z,100043.88
2023-04-22T11:33:33.638Z,100054.66
2023-04-22T11:36:02.042Z,99984.25
2023-04-22T11:38:30.024Z,100044.16
2023-04-22T11:40:58.383Z,100039.59
2023-04-22T11:43:27.752Z,100022.31
2023-04-22T11:45:57.797Z,100044.88
2023-04-22T11:48:26.262Z,100036.78
2023-04-22T11:51:11.044Z,100041.09
2023-04-22T11:53:41.166Z,100019.84
2023-04-22T11:56:09.401Z,100019.19
2023-04-22T11:58:41.255Z,100014.72
2023-04-22T12:01:14.271Z,99988.75
2023-04-22T12:03:42.685Z,100019.06
2023-04-22T12:06:10.943Z,100011.16
2023-04-22T12:08:42.290Z,100023.22
2023-04-22T12:11:12.340Z,100019.75
2023-04-22T12:13:46.170Z,100020.59
2023-04-22T12:16:15.586Z,100018.41
2023-04-22T12:18:50.201Z,100014.66
2023-04-22T12:21:20.152Z,100018.00
2023-04-22T12:23:49.514Z,99972.41
2023-04-22T12:26:18.676Z,100009.50
2023-04-22T12:28:48.435Z,100005.56
2023-04-22T12:31:16.881Z,99991.13
2023-04-22T12:33:45.780Z,99970.50
2023-04-22T12:36:14.010Z,99997.34
2023-04-22T12:38:42.038Z,99990.75
2023-04-22T12:41:10.606Z,99998.28
2023-04-22T12:43:39.397Z,99989.88
2023-04-22T12:46:09.865Z,99950.69
2023-04-22T12:48:38.400Z,99962.41
2023-04-22T12:51:07.092Z,99982.03
2023-04-22T12:53:35.175Z,99979.75
2023-04-22T12:56:03.142Z,99979.31
2023-04-22T12:58:31.104Z,99973.78
2023-04-22T13:00:59.061Z,99945.44
2023-04-22T13:03:28.745Z,99980.66
2023-04-22T13:05:56.771Z,99948.72
2023-04-22T13:08:24.689Z,99966.00
2023-04-22T13:10:52.655Z,99966.31
2023-04-22T13:13:20.657Z,99955.75
2023-04-22T13:15:53.303Z,99952.09
2023-04-22T13:18:22.952Z,99950.66
2023-04-22T13:20:52.199Z,99953.84
2023-04-22T13:23:22.093Z,99946.06
2023-04-22T13:25:50.540Z,99950.59
2023-04-22T13:28:18.442Z,99939.81
2023-04-22T13:30:46.357Z,99941.94
2023-04-22T13:33:14.274Z,99930.88
2023-04-22T13:35:42.754Z,99931.81
2023-04-22T13:38:12.153Z,99927.16
2023-04-22T13:40:40.236Z,99919.78
2023-04-22T13:43:09.928Z,99928.47
2023-04-22T13:45:38.023Z,99936.06
2023-04-22T13:48:06.429Z,99938.56
2023-04-22T13:50:34.801Z,99930.78
2023-04-22T13:53:03.810Z,99922.22
2023-04-22T13:55:33.474Z,99920.53
2023-04-22T13:58:01.375Z,99925.78
2023-04-22T14:00:29.672Z,99917.06
2023-04-22T14:02:57.975Z,99901.66
2023-04-22T14:05:26.086Z,99893.66
2023-04-22T14:07:54.452Z,99897.88
2023-04-22T14:10:22.669Z,99890.75
2023-04-22T14:12:52.061Z,99892.22
2023-04-22T14:15:20.292Z,99897.81
2023-04-22T14:17:49.518Z,99889.34
2023-04-22T14:20:17.825Z,99894.22
2023-04-22T14:22:46.239Z,99876.75
2023-04-22T14:25:14.428Z,99881.53
2023-04-22T14:27:42.402Z,99880.84
2023-04-22T14:30:13.519Z,99884.72
2023-04-22T14:32:41.563Z,99886.88
2023-04-22T14:35:09.839Z,99875.63
2023-04-22T14:37:37.801Z,99876.47
2023-04-22T14:40:06.628Z,99879.72
2023-04-22T14:42:34.579Z,99883.69
2023-04-22T14:45:02.623Z,99867.84
2023-04-22T14:47:32.275Z,99820.78
2023-04-22T14:50:01.276Z,99866.28
2023-04-22T14:52:29.304Z,99863.88
2023-04-22T14:54:57.753Z,99860.28
2023-04-22T14:57:25.767Z,99852.38
2023-04-22T14:59:53.698Z,99850.16
2023-04-22T15:02:21.720Z,99859.94
2023-04-22T15:04:51.648Z,99858.16
2023-04-22T15:07:19.628Z,99849.28
2023-04-22T15:09:47.603Z,99823.44
2023-04-22T15:12:15.549Z,99848.22
2023-04-22T15:14:43.647Z,99842.44
2023-04-22T15:17:12.740Z,99842.44
2023-04-22T15:19:40.918Z,99838.25
2023-04-22T15:22:10.670Z,99840.63
2023-04-22T15:24:38.622Z,99834.13
2023-04-22T15:27:07.020Z,99835.94
2023-04-22T15:29:34.980Z,99827.47
2023-04-22T15:32:03.604Z,99834.66
2023-04-22T15:34:32.042Z,99811.47
2023-04-22T15:36:59.974Z,99830.72
2023-04-22T15:39:29.253Z,99824.13
2023-04-22T15:41:58.311Z,99802.16
2023-04-22T15:44:26.422Z,99824.31
2023-04-22T15:46:55.991Z,99819.94
2023-04-22T15:49:25.028Z,99819.75
2023-04-22T15:51:53.129Z,99826.50
2023-04-22T15:54:21.135Z,99818.84
2023-04-22T15:56:50.445Z,99812.41
2023-04-22T15:59:21.240Z,99816.84
2023-04-22T16:01:50.901Z,99818.72
2023-04-22T16:04:20.259Z,99810.41
2023-04-22T16:06:50.667Z,99812.47
2023-04-22T16:09:19.296Z,99788.25
2023-04-22T16:11:47.244Z,99810.34
2023-04-22T16:14:16.907Z,99799.97
2023-04-22T16:16:45.744Z,99802.63
2023-04-22T16:19:13.797Z,99809.59
2023-04-22T16:21:41.888Z,99807.22
2023-04-22T16:24:09.851Z,99799.59
2023-04-22T16:26:37.909Z,99807.38
2023-04-22T16:29:06.095Z,99767.50
2023-04-22T16:31:35.943Z,99789.75
2023-04-22T16:34:03.868Z,99770.22
2023-04-22T16:36:32.576Z,99792.81
2023-04-22T16:39:00.680Z,99795.00
2023-04-22T16:41:28.733Z,99790.59
2023-04-22T16:43:56.761Z,99758.50
2023-04-22T16:46:24.872Z,99785.66
2023-04-22T16:48:54.227Z,99783.28
2023-04-22T16:51:22.435Z,99784.59
2023-04-22T16:53:50.404Z,99790.31
2023-04-22T16:56:18.343Z,99779.72
2023-04-22T16:58:46.234Z,99782.59
2023-04-22T17:01:14.267Z,99785.25
2023-04-22T17:03:42.739Z,99758.94
2023-04-22T17:06:12.161Z,99779.13
2023-04-22T17:08:40.144Z,99786.03
2023-04-22T17:11:08.203Z,99785.16
2023-04-22T17:13:36.165Z,99789.66
2023-04-22T17:16:04.194Z,99788.09
2023-04-22T17:18:32.111Z,99795.25
2023-04-22T17:21:00.183Z,99789.34
2023-04-22T17:23:29.572Z,99778.38
2023-04-22T17:25:57.604Z,99790.75
2023-04-22T17:28:25.547Z,99777.63
2023-04-22T17:30:53.636Z,99793.88
2023-04-22T17:33:21.621Z,99789.94
2023-04-22T17:35:50.382Z,99768.84
2023-04-22T17:38:21.467Z,99748.38
2023-04-22T17:40:51.128Z,99789.50
2023-04-22T17:43:19.531Z,99786.09
2023-04-22T17:45:49.993Z,99753.78
2023-04-22T17:48:19.340Z,99760.69
2023-04-22T17:50:47.671Z,99794.69
2023-04-22T17:53:16.126Z,99770.31
2023-04-22T17:55:45.814Z,99800.72
2023-04-22T17:58:15.257Z,99794.75
2023-04-22T18:00:43.233Z,99786.09
2023-04-22T18:03:11.432Z,99795.09
2023-04-22T18:05:43.229Z,99786.63
2023-04-22T18:08:11.905Z,99791.50
2023-04-22T18:10:40.391Z,99785.53
2023-04-22T18:13:08.446Z,99794.50
2023-04-22T18:15:37.716Z,99728.19
2023-04-22T18:18:05.956Z,99800.28
2023-04-22T18:20:34.960Z,99803.13
2023-04-22T18:23:03.136Z,99807.53
2023-04-22T18:25:31.248Z,99812.41
2023-04-22T18:27:59.235Z,99808.75
2023-04-22T18:30:27.168Z,99828.66
2023-04-22T18:32:56.719Z,99833.03
2023-04-22T18:35:24.796Z,99820.88
2023-04-22T18:37:52.875Z,99832.72
2023-04-22T18:40:21.326Z,99842.53
2023-04-22T18:42:49.276Z,99848.41
2023-04-22T18:45:17.474Z,99863.91
2023-04-22T18:47:46.887Z,99848.03
2023-04-22T18:50:16.385Z,99865.38
2023-04-22T18:52:44.435Z,99858.25
2023-04-22T18:55:12.426Z,99872.00
2023-04-22T18:57:41.550Z,99891.59
2023-04-22T19:00:12.565Z,99886.53
2023-04-22T19:02:42.360Z,99890.03
2023-04-22T19:05:11.096Z,99882.03
2023-04-22T19:07:42.487Z,99898.97
2023-04-22T19:10:11.925Z,99900.78
2023-04-22T19:12:40.236Z,99872.41
2023-04-22T19:15:09.330Z,99901.22
2023-04-22T19:17:38.077Z,99909.50
2023-04-22T19:20:08.220Z,99915.22
2023-04-22T19:22:36.284Z,99908.44
2023-04-22T19:25:06.928Z,99918.66
2023-04-22T19:27:35.250Z,99910.63
2023-04-22T19:30:03.704Z,99920.16
2023-04-22T19:32:32.565Z,99923.41
2023-04-22T19:35:03.659Z,99920.00
2023-04-22T19:37:32.153Z,99908.75
2023-04-22T19:40:00.288Z,99909.00
2023-04-22T19:42:30.086Z,99912.63
2023-04-22T19:44:59.020Z,99914.06
2023-04-22T19:47:27.670Z,99900.16
2023-04-22T19:49:56.467Z,99899.19
2023-04-22T19:52:26.062Z,99901.03
2023-04-22T19:54:56.137Z,99892.88
2023-04-22T19:57:24.859Z,99861.84
2023-04-22T19:59:55.016Z,99899.00
2023-04-22T20:02:24.073Z,99902.16
2023-04-22T20:04:52.765Z,99899.81
2023-04-22T20:07:21.560Z,99891.75
2023-04-22T20:09:50.984Z,99899.31
2023-04-22T20:12:19.337Z,99892.72
2023-04-22T20:14:47.501Z,99880.16
